Weather History for KIJX - October, 2011

Change the Weather History Date:

Thursday, October 20, 2011

  Actual Average (KSPI) Record (KSPI)
Temperature  
Mean Temperature 46 °F 54 °F  
Max Temperature 53 °F 65 °F 87 °F (2003)
Min Temperature 39 °F 43 °F 24 °F (1964)
Degree Days  
Heating Degree Days 19 12  
Month to date heating degree days 181  
Since 1 July heating degree days 262  
Cooling Degree Days 0 0  
Month to date cooling degree days 19  
Year to date cooling degree days 1118  
Moisture  
Dew Point 34 °F    
Average Humidity 63    
Maximum Humidity 81    
Minimum Humidity 44    
Precipitation  
Precipitation 0.00 in 0.10 in 1.68 in (2005)
Month to date precipitation 2.00  
Year to date precipitation 30.55  
Snow  
Snow 0.00 in 0.00 in 1.10 in (1916)
Month to date snowfall 0.0  
Since 1 July snowfall 0.0  
Since 1 September snowfall 0.0  
Snow Depth -    
Sea Level Pressure  
Sea Level Pressure 29.84 in    
Wind  
Wind Speed 16 mph (WNW)    
Max Wind Speed 22 mph    
Max Gust Speed 29 mph    
Visibility 10 miles    
Events      
T = Trace of Precipitation, MM = Missing Value Source: NWS Daily Summary

Daily Weather History Graph

Daily Weather History Graph

Search for Another Location

Airport or City:

Trip Planner

Search our weather history database for the weather conditions in past years. The results will help you decide how hot, cold, wet, or windy it might be!

Date:

Astronomy

Oct. 20, 2011 Rise Set
Actual Time 7:16 AM CDT 6:14 PM CDT
Civil Twilight 6:48 AM CDT 6:42 PM CDT
Nautical Twilight 6:17 AM CDT 7:13 PM CDT
Astronomical Twilight 5:46 AM CDT 7:44 PM CDT
Moon 12:02 AM CDT (10/20) 2:22 PM CDT (10/20)
Length of Visible Light 11h 53m
Length of Day
10h 58m
Last Quarter, 44% of the Moon is Illuminated
Oct 20
Last Quarter
Oct 26
New
Nov 2
First Quarter
Nov 10
Full
Nov 18
Last Quarter

Hourly Weather History & Observations

Time (CDT) Temp. Windchill Dew Point Humidity Pressure Visibility Wind Dir Wind Speed Gust Speed Precip Events Conditions
12:15 AM 46.4 °F 39.0 °F 35.6 °F 66% 29.75 in 10.0 mi NW 19.6 mph 26.5 mph N/A   Overcast
12:35 AM 48.2 °F - 35.6 °F 62% 29.75 in 10.0 mi NW 18.4 mph 25.3 mph N/A   Overcast
12:55 AM 48.2 °F - 33.8 °F 58% 29.74 in 10.0 mi NW 20.7 mph 27.6 mph N/A   Overcast
1:15 AM 48.2 °F - 33.8 °F 58% 29.75 in 10.0 mi NW 20.7 mph 27.6 mph N/A   Overcast
1:35 AM 46.4 °F 39.5 °F 33.8 °F 62% 29.75 in 10.0 mi WNW 17.3 mph 25.3 mph N/A   Overcast
1:55 AM 46.4 °F 39.5 °F 35.6 °F 66% 29.75 in 10.0 mi NW 17.3 mph 24.2 mph N/A   Overcast
2:15 AM 46.4 °F 39.2 °F 35.6 °F 66% 29.75 in 10.0 mi NW 18.4 mph 27.6 mph N/A   Overcast
2:35 AM 46.4 °F 39.5 °F 35.6 °F 66% 29.75 in 10.0 mi NW 17.3 mph 27.6 mph N/A   Overcast
2:55 AM 46.4 °F 39.5 °F 35.6 °F 66% 29.75 in 10.0 mi NW 17.3 mph 24.2 mph N/A   Overcast
3:15 AM 46.4 °F 39.5 °F 35.6 °F 66% 29.75 in 10.0 mi NW 17.3 mph 24.2 mph N/A   Overcast
3:35 AM 44.6 °F 37.2 °F 33.8 °F 66% 29.75 in 10.0 mi WNW 17.3 mph 26.5 mph N/A   Overcast
3:55 AM 44.6 °F 37.2 °F 33.8 °F 66% 29.75 in 10.0 mi WNW 17.3 mph 28.8 mph N/A   Scattered Clouds
4:15 AM 44.6 °F 37.8 °F 33.8 °F 66% 29.76 in 10.0 mi WNW 15.0 mph 19.6 mph N/A   Clear
4:35 AM 42.8 °F 34.8 °F 33.8 °F 70% 29.76 in 10.0 mi WNW 17.3 mph 25.3 mph N/A   Clear
4:55 AM 42.8 °F 34.8 °F 33.8 °F 70% 29.75 in 10.0 mi WNW 17.3 mph 23.0 mph N/A   Clear
5:15 AM 42.8 °F 36.2 °F 33.8 °F 70% 29.76 in 10.0 mi WNW 12.7 mph 19.6 mph N/A   Clear
5:35 AM 42.8 °F 36.2 °F 33.8 °F 70% 29.77 in 10.0 mi WNW 12.7 mph 23.0 mph N/A   Clear
5:55 AM 41.0 °F 33.1 °F 33.8 °F 76% 29.77 in 10.0 mi WNW 15.0 mph 21.9 mph N/A   Clear
6:15 AM 41.0 °F 33.5 °F 33.8 °F 76% 29.77 in 10.0 mi WNW 13.8 mph - N/A   Clear
6:35 AM 41.0 °F 33.9 °F 33.8 °F 76% 29.77 in 10.0 mi WNW 12.7 mph 19.6 mph N/A   Clear
6:55 AM 41.0 °F 33.5 °F 33.8 °F 76% 29.78 in 10.0 mi WNW 13.8 mph - N/A   Clear
7:15 AM 41.0 °F 33.5 °F 33.8 °F 76% 29.79 in 10.0 mi WNW 13.8 mph 18.4 mph N/A   Clear
7:35 AM 39.2 °F 31.6 °F 33.8 °F 81% 29.79 in 10.0 mi WNW 12.7 mph 17.3 mph N/A   Clear
7:55 AM 41.0 °F 33.5 °F 33.8 °F 76% 29.80 in 10.0 mi WNW 13.8 mph - N/A   Mostly Cloudy
8:15 AM 41.0 °F 33.1 °F 33.8 °F 76% 29.81 in 10.0 mi WNW 15.0 mph 19.6 mph N/A   Mostly Cloudy
8:35 AM 41.0 °F 33.1 °F 33.8 °F 76% 29.82 in 10.0 mi WNW 15.0 mph 19.6 mph N/A   Scattered Clouds
8:55 AM 42.8 °F 35.1 °F 33.8 °F 70% 29.82 in 10.0 mi WNW 16.1 mph 23.0 mph N/A   Clear
9:15 AM 42.8 °F 34.0 °F 33.8 °F 70% 29.83 in 10.0 mi WNW 20.7 mph 26.5 mph N/A   Scattered Clouds
9:35 AM 44.6 °F 37.4 °F 35.6 °F 71% 29.84 in 10.0 mi WNW 16.1 mph 23.0 mph N/A   Scattered Clouds
9:55 AM 44.6 °F 37.4 °F 33.8 °F 66% 29.84 in 10.0 mi NW 16.1 mph 26.5 mph N/A   Mostly Cloudy
10:15 AM 44.6 °F 36.9 °F 35.6 °F 71% 29.85 in 10.0 mi NW 18.4 mph 24.2 mph N/A   Mostly Cloudy
10:35 AM 46.4 °F 39.5 °F 35.6 °F 66% 29.84 in 10.0 mi WNW 17.3 mph 21.9 mph N/A   Mostly Cloudy
10:55 AM 48.2 °F - 35.6 °F 62% 29.84 in 10.0 mi WNW 17.3 mph 23.0 mph N/A   Mostly Cloudy
11:15 AM 46.4 °F 39.8 °F 33.8 °F 62% 29.84 in 10.0 mi WNW 16.1 mph 24.2 mph N/A   Mostly Cloudy
11:35 AM 48.2 °F - 33.8 °F 58% 29.85 in 10.0 mi WNW 16.1 mph 21.9 mph N/A   Mostly Cloudy
11:55 AM 50.0 °F - 33.8 °F 54% 29.84 in 10.0 mi WNW 18.4 mph 24.2 mph N/A   Mostly Cloudy
12:15 PM 50.0 °F - 33.8 °F 54% 29.84 in 10.0 mi WNW 18.4 mph 23.0 mph N/A   Mostly Cloudy
12:35 PM 50.0 °F - 33.8 °F 54% 29.84 in 10.0 mi WNW 17.3 mph 24.2 mph N/A   Overcast
12:55 PM 50.0 °F - 33.8 °F 54% 29.84 in 10.0 mi WNW 18.4 mph 27.6 mph N/A   Overcast
1:35 PM 51.8 °F - 33.8 °F 50% 29.84 in 10.0 mi WNW 17.3 mph 27.6 mph N/A   Mostly Cloudy
1:55 PM 53.6 °F - 33.8 °F 47% 29.85 in 10.0 mi West 21.9 mph 27.6 mph N/A   Mostly Cloudy
2:15 PM 51.8 °F - 33.8 °F 50% 29.85 in 10.0 mi WNW 17.3 mph 27.6 mph N/A   Scattered Clouds
2:35 PM 53.6 °F - 33.8 °F 47% 29.85 in 10.0 mi WNW 16.1 mph 26.5 mph N/A   Mostly Cloudy
2:55 PM 53.6 °F - 32.0 °F 44% 29.86 in 10.0 mi WNW 18.4 mph 28.8 mph N/A   Overcast
3:15 PM 53.6 °F - 33.8 °F 47% 29.87 in 10.0 mi WNW 18.4 mph 25.3 mph N/A   Overcast
3:35 PM 53.6 °F - 32.0 °F 44% 29.88 in 10.0 mi WNW 21.9 mph 27.6 mph N/A   Overcast
3:55 PM 53.6 °F - 33.8 °F 47% 29.88 in 10.0 mi WNW 16.1 mph 25.3 mph N/A   Overcast
4:15 PM 53.6 °F - 32.0 °F 44% 29.88 in 10.0 mi WNW 15.0 mph 24.2 mph N/A   Overcast
4:35 PM 51.8 °F - 32.0 °F 47% 29.89 in 10.0 mi WNW 16.1 mph 20.7 mph N/A   Mostly Cloudy
4:55 PM 51.8 °F - 33.8 °F 50% 29.90 in 10.0 mi WNW 12.7 mph - N/A   Scattered Clouds
5:15 PM 51.8 °F - 33.8 °F 50% 29.90 in 10.0 mi West 15.0 mph - N/A   Clear
5:35 PM 51.8 °F - 33.8 °F 50% 29.90 in 10.0 mi West 13.8 mph 18.4 mph N/A   Scattered Clouds
5:55 PM 51.8 °F - 33.8 °F 50% 29.91 in 10.0 mi West 11.5 mph - N/A   Scattered Clouds
6:15 PM 51.8 °F - 33.8 °F 50% 29.92 in 10.0 mi WNW 11.5 mph 18.4 mph N/A   Clear
6:35 PM 48.2 °F - 33.8 °F 58% 29.93 in 10.0 mi WNW 8.1 mph - N/A   Clear
6:55 PM 44.6 °F 42.2 °F 32.0 °F 61% 29.94 in 10.0 mi WNW 4.6 mph - N/A   Clear
7:15 PM 44.6 °F 42.2 °F 32.0 °F 61% 29.95 in 10.0 mi West 4.6 mph - N/A   Clear
7:35 PM 42.8 °F 40.1 °F 32.0 °F 66% 29.95 in 10.0 mi West 4.6 mph - N/A   Clear
7:55 PM 42.8 °F 41.1 °F 32.0 °F 66% 29.95 in 10.0 mi West 3.5 mph - N/A   Clear
8:15 PM 42.8 °F 40.1 °F 32.0 °F 66% 29.96 in 10.0 mi SW 4.6 mph - N/A   Clear
8:35 PM 41.0 °F 39.0 °F 33.8 °F 76% 29.95 in 10.0 mi SW 3.5 mph - N/A   Clear
8:55 PM 41.0 °F 38.0 °F 33.8 °F 76% 29.96 in 10.0 mi SW 4.6 mph - N/A   Clear
9:15 PM 39.2 °F 35.0 °F 32.0 °F 75% 29.96 in 10.0 mi SW 5.8 mph - N/A   Clear
9:35 PM 41.0 °F 36.4 °F 32.0 °F 70% 29.97 in 10.0 mi SW 6.9 mph - N/A   Clear
9:55 PM 41.0 °F 36.4 °F 32.0 °F 70% 29.97 in 10.0 mi SW 6.9 mph - N/A   Clear
10:15 PM 41.0 °F 36.4 °F 32.0 °F 70% 29.98 in 10.0 mi SW 6.9 mph - N/A   Clear
10:35 PM 41.0 °F 37.1 °F 32.0 °F 70% 29.98 in 10.0 mi SW 5.8 mph - N/A   Clear
10:55 PM 41.0 °F 37.1 °F 32.0 °F 70% 29.98 in 10.0 mi SW 5.8 mph - N/A   Clear
11:15 PM 41.0 °F 37.1 °F 32.0 °F 70% 29.98 in 10.0 mi WSW 5.8 mph - N/A   Clear
11:35 PM 41.0 °F 37.1 °F 32.0 °F 70% 29.99 in 10.0 mi West 5.8 mph - N/A   Clear
11:55 PM 42.8 °F 38.0 °F 32.0 °F 66% 29.99 in 10.0 mi West 8.1 mph - N/A   Clear